createdAt,value
2018-07-09T00:00:03.131Z,8.2
2018-07-09T00:01:04.088Z,7.6
2018-07-09T00:02:04.823Z,6.7
2018-07-09T00:03:05.558Z,7.1
2018-07-09T00:04:06.266Z,12.6
2018-07-09T00:05:06.993Z,7.8
2018-07-09T00:06:07.710Z,8.3
2018-07-09T00:07:08.427Z,7.6
2018-07-09T00:08:09.390Z,6.9
2018-07-09T00:09:10.118Z,7.1
2018-07-09T00:10:10.840Z,7.0
2018-07-09T00:11:11.558Z,7.7
2018-07-09T00:12:12.680Z,7.5
2018-07-09T00:13:13.398Z,8.1
2018-07-09T00:14:14.125Z,7.3
2018-07-09T00:15:14.838Z,7.8
2018-07-09T00:16:15.575Z,9.1
2018-07-09T00:17:16.295Z,15.3
2018-07-09T00:18:17.013Z,8.2
2018-07-09T00:19:17.987Z,11.6
2018-07-09T00:20:19.106Z,7.7
2018-07-09T00:21:19.820Z,9.5
2018-07-09T00:22:20.788Z,8.9
2018-07-09T00:23:21.756Z,8.6
2018-07-09T00:24:22.469Z,8.3
2018-07-09T00:25:23.190Z,8.8
2018-07-09T00:26:23.919Z,11.8
2018-07-09T00:27:24.641Z,8.6
2018-07-09T00:28:25.368Z,10.2
2018-07-09T00:29:26.095Z,9.8
2018-07-09T00:30:26.819Z,8.8
2018-07-09T00:31:27.554Z,11.0
2018-07-09T00:32:28.269Z,10.3
2018-07-09T00:33:29.001Z,13.5
2018-07-09T00:34:29.717Z,12.6
2018-07-09T00:35:30.691Z,9.3
2018-07-09T00:36:31.660Z,10.5
2018-07-09T00:37:32.381Z,10.2
2018-07-09T00:38:33.344Z,13.4
2018-07-09T00:39:34.306Z,9.2
2018-07-09T00:40:35.268Z,9.3
2018-07-09T00:41:35.979Z,13.3
2018-07-09T00:42:36.693Z,9.9
2018-07-09T00:43:37.405Z,10.1
2018-07-09T00:44:38.125Z,10.6
2018-07-09T00:45:38.849Z,12.7
2018-07-09T00:46:39.574Z,14.1
2018-07-09T00:47:40.291Z,10.3
2018-07-09T00:48:41.021Z,12.2
2018-07-09T00:49:42.135Z,14.5
2018-07-09T00:50:42.848Z,10.3
2018-07-09T00:51:43.568Z,10.7
2018-07-09T00:52:44.289Z,11.4
2018-07-09T00:53:45.012Z,11.1
2018-07-09T00:54:45.901Z,11.2
2018-07-09T00:55:46.619Z,11.1
2018-07-09T00:56:47.342Z,10.4
2018-07-09T00:57:48.311Z,10.5
2018-07-09T00:58:49.026Z,12.0
2018-07-09T00:59:49.747Z,10.6
2018-07-09T01:00:50.473Z,10.5
2018-07-09T01:01:51.208Z,10.0
2018-07-09T01:02:51.935Z,11.2
2018-07-09T01:03:52.664Z,10.7
2018-07-09T01:04:53.392Z,13.3
2018-07-09T01:05:54.275Z,9.4
2018-07-09T01:06:54.984Z,13.7
2018-07-09T01:07:55.696Z,10.9
2018-07-09T01:08:56.420Z,12.3
2018-07-09T01:09:57.132Z,10.9
2018-07-09T01:10:57.919Z,13.6
2018-07-09T01:11:58.650Z,11.6
2018-07-09T01:12:59.365Z,11.8
2018-07-09T01:14:00.084Z,13.4
2018-07-09T01:15:01.058Z,12.6
2018-07-09T01:16:01.784Z,19.3
2018-07-09T01:17:02.751Z,17.9
2018-07-09T01:18:03.464Z,13.1
2018-07-09T01:19:04.185Z,15.4
2018-07-09T01:20:04.910Z,15.0
2018-07-09T01:21:05.630Z,14.1
2018-07-09T01:22:06.406Z,14.6
2018-07-09T01:23:07.123Z,14.7
2018-07-09T01:24:07.846Z,13.7
2018-07-09T01:25:08.567Z,16.6
2018-07-09T01:26:09.283Z,15.2
2018-07-09T01:27:10.098Z,15.1
2018-07-09T01:28:10.822Z,12.5
2018-07-09T01:29:11.545Z,16.0
2018-07-09T01:30:12.266Z,14.7
2018-07-09T01:31:12.997Z,13.4
2018-07-09T01:32:13.701Z,20.3
2018-07-09T01:33:14.677Z,18.0
2018-07-09T01:34:15.394Z,20.0
2018-07-09T01:35:16.109Z,13.9
2018-07-09T01:36:16.823Z,12.9
2018-07-09T01:37:17.599Z,19.8
2018-07-09T01:38:18.312Z,15.4
2018-07-09T01:39:19.037Z,12.9
2018-07-09T01:40:19.785Z,14.4
2018-07-09T01:41:20.512Z,17.8
2018-07-09T01:42:21.228Z,20.1
2018-07-09T01:43:22.597Z,19.6
2018-07-09T01:44:23.319Z,17.4
2018-07-09T01:45:24.287Z,21.0
2018-07-09T01:46:25.015Z,23.4
2018-07-09T01:47:25.730Z,19.6
2018-07-09T01:48:26.507Z,15.5
2018-07-09T01:49:27.239Z,16.1
2018-07-09T01:50:27.955Z,18.0
2018-07-09T01:51:28.683Z,16.7
2018-07-09T01:52:29.403Z,18.7
2018-07-09T01:53:30.775Z,23.5
2018-07-09T01:54:31.482Z,20.8
2018-07-09T01:55:32.189Z,20.3
2018-07-09T01:56:32.913Z,18.8
2018-07-09T01:57:33.627Z,21.6
2018-07-09T01:58:34.344Z,20.9
2018-07-09T01:59:35.319Z,28.1
2018-07-09T02:00:36.034Z,20.6
2018-07-09T02:01:36.764Z,20.5
2018-07-09T02:02:37.485Z,22.2
2018-07-09T02:03:38.197Z,30.2
2018-07-09T02:04:38.931Z,19.4
2018-07-09T02:05:39.643Z,20.5
2018-07-09T02:06:40.358Z,20.7
2018-07-09T02:07:41.102Z,22.0
2018-07-09T02:08:41.809Z,20.5
2018-07-09T02:09:42.539Z,26.8
2018-07-09T02:10:43.255Z,19.1
2018-07-09T02:11:43.971Z,21.7
2018-07-09T02:12:44.727Z,27.0
2018-07-09T02:13:45.447Z,22.5
2018-07-09T02:14:46.174Z,21.5
2018-07-09T02:15:46.896Z,20.3
2018-07-09T02:16:47.935Z,18.1
2018-07-09T02:17:48.661Z,27.3
2018-07-09T02:18:49.379Z,24.6
2018-07-09T02:19:50.089Z,20.7
2018-07-09T02:20:50.811Z,31.2
2018-07-09T02:21:51.531Z,22.3
2018-07-09T02:22:52.250Z,22.4
2018-07-09T02:23:52.979Z,20.5
2018-07-09T02:24:53.687Z,21.7
2018-07-09T02:25:54.401Z,18.1
2018-07-09T02:26:55.229Z,16.6
2018-07-09T02:27:55.939Z,28.6
2018-07-09T02:28:56.674Z,25.2
2018-07-09T02:29:57.386Z,26.3
2018-07-09T02:30:58.111Z,23.6
2018-07-09T02:31:58.934Z,31.3
2018-07-09T02:32:59.908Z,23.6
2018-07-09T02:34:00.631Z,22.7
2018-07-09T02:35:01.347Z,27.5
2018-07-09T02:36:02.068Z,21.8
2018-07-09T02:37:03.219Z,24.5
2018-07-09T02:38:03.942Z,28.3
2018-07-09T02:39:04.667Z,27.0
2018-07-09T02:40:05.384Z,26.2
2018-07-09T02:41:06.117Z,28.7
2018-07-09T02:42:06.856Z,26.1
2018-07-09T02:43:07.932Z,26.4
2018-07-09T02:44:08.650Z,25.7
2018-07-09T02:45:09.379Z,22.9
2018-07-09T02:46:10.097Z,22.6
2018-07-09T02:47:10.833Z,28.4
2018-07-09T02:48:11.807Z,27.0
2018-07-09T02:49:12.530Z,22.6
2018-07-09T02:50:13.230Z,23.6
2018-07-09T02:51:13.954Z,24.5
2018-07-09T02:52:14.925Z,29.1
2018-07-09T02:53:15.698Z,26.3
2018-07-09T02:54:16.421Z,23.2
2018-07-09T02:55:17.143Z,21.4
2018-07-09T02:56:17.852Z,19.4
2018-07-09T02:57:18.579Z,18.1
2018-07-09T02:58:19.300Z,24.4
2018-07-09T02:59:20.025Z,26.6
2018-07-09T03:00:20.745Z,21.7
2018-07-09T03:01:21.466Z,24.4
2018-07-09T03:02:22.181Z,28.3
2018-07-09T03:03:22.902Z,29.7
2018-07-09T03:04:23.635Z,25.8
2018-07-09T03:05:24.507Z,28.3
2018-07-09T03:06:25.234Z,28.9
2018-07-09T03:07:25.955Z,24.6
2018-07-09T03:08:26.674Z,22.4
2018-07-09T03:09:27.392Z,22.4
2018-07-09T03:10:28.179Z,28.4
2018-07-09T03:11:28.908Z,21.1
2018-07-09T03:12:29.647Z,26.6
2018-07-09T03:13:30.364Z,27.6
2018-07-09T03:14:31.094Z,23.0
2018-07-09T03:15:32.072Z,27.4
2018-07-09T03:16:32.783Z,24.7
2018-07-09T03:17:33.507Z,22.5
2018-07-09T03:18:34.227Z,19.4
2018-07-09T03:19:34.951Z,23.5
2018-07-09T03:20:35.727Z,21.4
2018-07-09T03:21:36.455Z,27.1
2018-07-09T03:22:37.181Z,18.9
2018-07-09T03:23:37.904Z,23.5
2018-07-09T03:24:38.641Z,19.4
2018-07-09T03:25:39.417Z,20.3
2018-07-09T03:26:40.154Z,20.9
2018-07-09T03:27:40.891Z,19.0
2018-07-09T03:28:41.618Z,24.2
2018-07-09T03:29:42.426Z,20.1
2018-07-09T03:30:43.114Z,20.4
2018-07-09T03:31:43.843Z,26.6
2018-07-09T03:32:44.590Z,18.7
2018-07-09T03:33:45.333Z,19.5
2018-07-09T03:34:46.062Z,19.9
2018-07-09T03:35:46.796Z,18.1
2018-07-09T03:36:47.523Z,22.3
2018-07-09T03:37:48.246Z,21.1
2018-07-09T03:38:48.972Z,19.6
2018-07-09T03:39:49.696Z,16.7
2018-07-09T03:40:50.418Z,19.8
2018-07-09T03:41:51.160Z,22.5
2018-07-09T03:42:51.884Z,18.4
2018-07-09T03:43:52.624Z,21.0
2018-07-09T03:44:53.367Z,23.9
2018-07-09T03:45:54.101Z,21.6
2018-07-09T03:46:54.834Z,20.5
2018-07-09T03:47:55.563Z,19.9
2018-07-09T03:48:56.313Z,19.1
2018-07-09T03:49:57.038Z,15.2
2018-07-09T03:50:57.756Z,16.8
2018-07-09T03:51:58.476Z,21.7
2018-07-09T03:52:59.192Z,21.6
2018-07-09T03:53:59.917Z,21.2
2018-07-09T03:55:00.881Z,19.1
2018-07-09T03:56:01.620Z,16.9
2018-07-09T03:57:02.339Z,14.8
2018-07-09T03:58:03.066Z,20.5
2018-07-09T03:59:03.793Z,16.1
2018-07-09T04:00:04.536Z,18.8
2018-07-09T04:01:05.262Z,19.5
2018-07-09T04:02:05.985Z,16.7
2018-07-09T04:03:06.731Z,18.5
2018-07-09T04:04:07.451Z,16.7
2018-07-09T04:05:08.190Z,17.0
2018-07-09T04:06:08.913Z,19.6
2018-07-09T04:07:09.647Z,17.2
2018-07-09T04:08:10.374Z,20.0
2018-07-09T04:09:11.104Z,18.3
2018-07-09T04:10:12.226Z,23.1
2018-07-09T04:11:12.973Z,26.1
2018-07-09T04:12:13.707Z,21.2
2018-07-09T04:13:14.420Z,22.7
2018-07-09T04:14:15.169Z,21.9
2018-07-09T04:15:15.895Z,21.4
2018-07-09T04:16:16.632Z,19.1
2018-07-09T04:17:17.352Z,17.1
2018-07-09T04:18:18.081Z,25.3
2018-07-09T04:19:18.815Z,21.2
2018-07-09T04:20:19.553Z,20.6
2018-07-09T04:21:20.283Z,17.5
2018-07-09T04:22:21.070Z,23.2
2018-07-09T04:23:21.785Z,22.8
2018-07-09T04:24:22.525Z,26.3
2018-07-09T04:25:23.253Z,24.9
2018-07-09T04:26:23.974Z,19.1
2018-07-09T04:27:25.048Z,21.1
2018-07-09T04:28:26.021Z,23.3
2018-07-09T04:29:26.993Z,20.7
2018-07-09T04:30:27.715Z,21.8
2018-07-09T04:31:28.689Z,24.5
2018-07-09T04:32:29.763Z,25.7
2018-07-09T04:33:30.486Z,39.2
2018-07-09T04:34:31.213Z,37.9
2018-07-09T04:35:31.950Z,27.1
2018-07-09T04:36:32.675Z,30.3
2018-07-09T04:37:33.398Z,29.1
2018-07-09T04:38:34.129Z,31.3
2018-07-09T04:39:34.850Z,28.6
2018-07-09T04:40:35.589Z,74.7
2018-07-09T04:41:36.304Z,35.8
2018-07-09T04:42:37.037Z,40.0
2018-07-09T04:43:37.763Z,31.4
2018-07-09T04:44:38.481Z,26.7
2018-07-09T04:45:39.208Z,22.6
2018-07-09T04:46:39.939Z,20.3
2018-07-09T04:47:40.669Z,19.5
2018-07-09T04:48:41.388Z,22.2
2018-07-09T04:49:42.139Z,21.7
2018-07-09T04:50:42.868Z,19.2
2018-07-09T04:51:43.712Z,26.0
2018-07-09T04:52:44.450Z,25.0
2018-07-09T04:53:45.175Z,18.2
2018-07-09T04:54:45.906Z,23.3
2018-07-09T04:55:46.628Z,21.6
2018-07-09T04:56:47.453Z,17.8
2018-07-09T04:57:48.177Z,17.0
2018-07-09T04:58:48.913Z,17.7
2018-07-09T04:59:49.646Z,24.6
2018-07-09T05:00:50.386Z,15.9
2018-07-09T05:01:51.255Z,17.6
2018-07-09T05:02:51.986Z,19.1
2018-07-09T05:03:52.709Z,15.2
2018-07-09T05:04:53.452Z,20.5
2018-07-09T05:05:54.179Z,19.5
2018-07-09T05:06:54.946Z,15.0
2018-07-09T05:07:55.676Z,14.0
2018-07-09T05:08:56.396Z,15.5
2018-07-09T05:09:57.120Z,13.5
2018-07-09T05:10:57.847Z,13.5
2018-07-09T05:11:58.636Z,15.7
2018-07-09T05:12:59.416Z,16.9
2018-07-09T05:14:00.097Z,15.2
2018-07-09T05:15:00.831Z,13.9
2018-07-09T05:16:01.561Z,11.8
2018-07-09T05:17:02.294Z,14.1
2018-07-09T05:18:03.271Z,14.3
2018-07-09T05:19:04.250Z,13.2
2018-07-09T05:20:04.964Z,12.0
2018-07-09T05:21:05.677Z,14.1
2018-07-09T05:22:06.967Z,12.7
2018-07-09T05:23:07.772Z,11.8
2018-07-09T05:24:08.749Z,11.9
2018-07-09T05:25:09.474Z,14.4
2018-07-09T05:26:10.215Z,19.3
2018-07-09T05:27:10.932Z,14.1
2018-07-09T05:28:11.908Z,13.4
2018-07-09T05:29:12.698Z,11.6
2018-07-09T05:30:13.505Z,13.4
2018-07-09T05:31:14.659Z,15.7
2018-07-09T05:32:15.888Z,12.4
2018-07-09T05:33:16.735Z,10.7
2018-07-09T05:34:17.439Z,13.0
2018-07-09T05:35:18.695Z,14.5
2018-07-09T05:36:19.552Z,12.9
2018-07-09T05:37:20.758Z,17.5
2018-07-09T05:38:21.506Z,16.9
2018-07-09T05:39:22.219Z,10.5
2018-07-09T05:40:23.039Z,12.0
2018-07-09T05:41:23.859Z,17.0
2018-07-09T05:42:24.606Z,11.7
2018-07-09T05:43:25.383Z,10.8
2018-07-09T05:44:26.108Z,9.5
2018-07-09T05:45:26.850Z,11.9
2018-07-09T05:46:27.563Z,14.9
2018-07-09T05:47:28.313Z,13.5
2018-07-09T05:48:29.019Z,18.1
2018-07-09T05:49:29.763Z,16.8
2018-07-09T05:50:30.495Z,13.9
2018-07-09T05:51:31.235Z,11.8
2018-07-09T05:52:31.961Z,11.3
2018-07-09T05:53:32.692Z,10.8
2018-07-09T05:54:33.416Z,13.5
2018-07-09T05:55:34.414Z,12.7
2018-07-09T05:56:35.145Z,10.1
2018-07-09T05:57:35.879Z,12.5
2018-07-09T05:58:36.611Z,14.0
2018-07-09T05:59:37.337Z,13.9
2018-07-09T06:00:38.322Z,23.7
2018-07-09T06:01:39.293Z,19.8
2018-07-09T06:02:40.040Z,15.6
2018-07-09T06:03:40.771Z,10.5
2018-07-09T06:04:41.510Z,9.6
2018-07-09T06:05:42.241Z,17.4
2018-07-09T06:06:42.973Z,13.9
2018-07-09T06:07:43.708Z,10.5
2018-07-09T06:08:44.793Z,11.5
2018-07-09T06:09:45.517Z,11.1
2018-07-09T06:10:46.235Z,13.2
2018-07-09T06:11:46.964Z,13.9
2018-07-09T06:12:47.688Z,13.5
2018-07-09T06:13:48.419Z,10.7
2018-07-09T06:14:49.162Z,10.9
2018-07-09T06:15:49.901Z,9.4
2018-07-09T06:16:50.615Z,13.8
2018-07-09T06:17:51.348Z,13.7
2018-07-09T06:18:52.072Z,8.4
2018-07-09T06:19:52.804Z,8.4
2018-07-09T06:20:53.833Z,14.4
2018-07-09T06:21:54.566Z,8.5
2018-07-09T06:22:55.279Z,10.2
2018-07-09T06:23:56.034Z,14.2
2018-07-09T06:24:56.759Z,16.9
2018-07-09T06:25:57.598Z,7.6
2018-07-09T06:26:58.333Z,8.0
2018-07-09T06:27:59.061Z,11.5
2018-07-09T06:28:59.786Z,17.2
2018-07-09T06:30:00.528Z,9.3
2018-07-09T06:31:01.305Z,12.6
2018-07-09T06:32:02.040Z,9.8
2018-07-09T06:33:02.782Z,12.2
2018-07-09T06:34:03.513Z,11.1
2018-07-09T06:35:04.249Z,10.0
2018-07-09T06:36:04.986Z,9.7
2018-07-09T06:37:06.111Z,8.4
2018-07-09T06:38:06.841Z,12.5
2018-07-09T06:39:07.573Z,13.5
2018-07-09T06:40:08.309Z,9.6
2018-07-09T06:41:09.044Z,12.9
2018-07-09T06:42:10.123Z,9.2
2018-07-09T06:43:10.864Z,7.1
2018-07-09T06:44:11.591Z,8.9
2018-07-09T06:45:12.317Z,7.6
2018-07-09T06:46:13.049Z,7.5
2018-07-09T06:47:13.832Z,8.0
2018-07-09T06:48:14.587Z,7.4
2018-07-09T06:49:15.291Z,6.7
2018-07-09T06:50:16.024Z,9.1
2018-07-09T06:51:16.761Z,9.0
2018-07-09T06:52:17.499Z,7.0
2018-07-09T06:53:18.224Z,11.9
2018-07-09T06:54:18.957Z,8.4
2018-07-09T06:55:19.686Z,11.7
2018-07-09T06:56:20.665Z,7.2
2018-07-09T06:57:21.396Z,9.0
2018-07-09T06:58:22.132Z,7.1
2018-07-09T06:59:22.856Z,9.6
2018-07-09T07:00:23.587Z,7.0
2018-07-09T07:01:24.471Z,10.6
2018-07-09T07:02:25.538Z,10.2
2018-07-09T07:03:26.181Z,11.0
2018-07-09T07:04:26.905Z,9.6
2018-07-09T07:05:27.642Z,8.4
2018-07-09T07:06:28.764Z,9.5
2018-07-09T07:07:29.499Z,9.0
2018-07-09T07:08:30.485Z,8.1
2018-07-09T07:09:31.232Z,16.8
2018-07-09T07:10:31.960Z,9.4
2018-07-09T07:11:33.048Z,8.4
2018-07-09T07:12:33.792Z,10.1
2018-07-09T07:13:34.770Z,7.7
2018-07-09T07:14:35.507Z,8.8
2018-07-09T07:15:36.227Z,5.3
2018-07-09T07:16:36.959Z,10.7
2018-07-09T07:17:37.679Z,8.9
2018-07-09T07:18:38.414Z,11.3
2018-07-09T07:19:39.166Z,7.5
2018-07-09T07:20:39.896Z,7.7
2018-07-09T07:21:40.641Z,7.2
2018-07-09T07:22:41.364Z,4.3
2018-07-09T07:23:42.256Z,4.0
2018-07-09T07:24:42.985Z,6.7
2018-07-09T07:25:43.711Z,5.5
2018-07-09T07:26:44.442Z,6.8
2018-07-09T07:27:45.188Z,6.5
2018-07-09T07:28:46.014Z,9.5
2018-07-09T07:29:46.996Z,5.2
2018-07-09T07:30:47.719Z,6.6
2018-07-09T07:31:48.699Z,5.2
2018-07-09T07:32:49.446Z,4.1
2018-07-09T07:33:50.158Z,5.8
2018-07-09T07:34:50.905Z,9.1
2018-07-09T07:35:51.893Z,8.2
2018-07-09T07:36:52.638Z,6.6
2018-07-09T07:37:53.372Z,6.4
2018-07-09T07:38:54.105Z,8.2
2018-07-09T07:39:54.833Z,5.4
2018-07-09T07:40:55.566Z,7.1
2018-07-09T07:41:56.293Z,7.3
2018-07-09T07:42:57.032Z,3.1
2018-07-09T07:43:57.763Z,3.3
2018-07-09T07:44:58.507Z,7.5
2018-07-09T07:45:59.223Z,5.7
2018-07-09T07:46:59.946Z,6.2
2018-07-09T07:48:00.679Z,6.9
2018-07-09T07:49:01.507Z,5.2
2018-07-09T07:50:02.237Z,3.8
2018-07-09T07:51:02.964Z,4.1
2018-07-09T07:52:03.695Z,7.8
2018-07-09T07:53:04.422Z,3.8
2018-07-09T07:54:05.225Z,4.6
2018-07-09T07:55:05.955Z,6.3
2018-07-09T07:56:06.685Z,5.5
2018-07-09T07:57:07.428Z,5.2
2018-07-09T07:58:08.157Z,4.1
2018-07-09T07:59:08.885Z,5.5
2018-07-09T08:00:09.861Z,5.4
2018-07-09T08:01:10.622Z,4.8
2018-07-09T08:02:11.349Z,4.0
2018-07-09T08:03:12.070Z,2.9
2018-07-09T08:04:12.796Z,9.7
2018-07-09T08:05:13.531Z,5.4
2018-07-09T08:06:14.263Z,3.3
2018-07-09T08:07:14.986Z,5.2
2018-07-09T08:08:15.715Z,3.6
2018-07-09T08:09:16.483Z,2.9
2018-07-09T08:10:17.182Z,3.7
2018-07-09T08:11:17.921Z,2.7
2018-07-09T08:13:29.007Z,3.8
2018-07-09T08:14:22.010Z,7.4
2018-07-09T08:15:22.738Z,3.6
2018-07-09T08:16:23.472Z,6.5
2018-07-09T08:17:24.204Z,7.0
2018-07-09T08:18:24.930Z,4.9
2018-07-09T08:19:25.670Z,4.3
2018-07-09T08:20:26.395Z,9.3
2018-07-09T08:21:27.135Z,2.9
2018-07-09T08:22:27.871Z,4.5
2018-07-09T08:23:28.619Z,3.2
2018-07-09T08:24:29.598Z,4.6
2018-07-09T08:25:30.579Z,5.1
2018-07-09T08:26:31.074Z,5.6
2018-07-09T08:27:31.805Z,5.6
2018-07-09T08:28:32.558Z,3.6
2018-07-09T08:29:33.285Z,7.6
2018-07-09T08:30:34.008Z,4.1
2018-07-09T08:31:34.748Z,4.7
2018-07-09T08:32:35.472Z,3.7
2018-07-09T08:33:36.212Z,6.8
2018-07-09T08:34:37.085Z,4.1
2018-07-09T08:35:37.814Z,5.5
2018-07-09T08:36:38.555Z,6.4
2018-07-09T08:37:39.290Z,5.6
2018-07-09T08:38:40.025Z,6.8
2018-07-09T08:39:40.852Z,6.2
2018-07-09T08:40:41.600Z,4.7
2018-07-09T08:41:42.333Z,5.7
2018-07-09T08:42:43.073Z,4.4
2018-07-09T08:43:43.822Z,6.1
2018-07-09T08:44:44.815Z,3.7
2018-07-09T08:45:45.562Z,5.4
2018-07-09T08:46:46.534Z,6.1
2018-07-09T08:47:47.264Z,5.3
2018-07-09T08:48:48.000Z,4.9
2018-07-09T08:49:48.729Z,3.9
2018-07-09T08:50:49.522Z,4.0
2018-07-09T08:51:50.252Z,4.4
2018-07-09T08:52:51.237Z,4.5
2018-07-09T08:53:51.973Z,5.1
2018-07-09T08:54:52.709Z,4.0
2018-07-09T08:55:53.435Z,4.5
2018-07-09T08:56:54.180Z,3.4
2018-07-09T08:57:55.316Z,3.8
2018-07-09T08:58:56.046Z,6.0
2018-07-09T08:59:56.784Z,6.6
2018-07-09T09:00:57.517Z,3.7
2018-07-09T09:01:58.252Z,6.6
2018-07-09T09:02:59.401Z,3.5
2018-07-09T09:04:00.135Z,4.8
2018-07-09T09:05:00.883Z,8.7
2018-07-09T09:06:01.630Z,3.8
2018-07-09T09:07:02.363Z,4.3
2018-07-09T09:08:03.267Z,3.5
2018-07-09T09:09:04.000Z,3.5
2018-07-09T09:10:04.777Z,5.9
2018-07-09T09:11:05.471Z,3.5
2018-07-09T09:12:06.210Z,4.7
2018-07-09T09:13:07.042Z,4.5
2018-07-09T09:14:07.785Z,4.4
2018-07-09T09:15:08.511Z,6.4
2018-07-09T09:16:09.240Z,9.0
2018-07-09T09:17:09.994Z,5.5
2018-07-09T09:18:10.821Z,4.7
2018-07-09T09:19:11.795Z,4.1
2018-07-09T09:20:12.533Z,8.6
2018-07-09T09:21:13.267Z,6.6
2018-07-09T09:22:14.005Z,6.4
2018-07-09T09:23:14.737Z,9.6
2018-07-09T09:24:15.473Z,4.0
2018-07-09T09:25:16.207Z,7.8
2018-07-09T09:26:16.938Z,8.7
2018-07-09T09:27:17.916Z,4.6
2018-07-09T09:28:18.896Z,6.1
2018-07-09T09:29:19.653Z,6.9
2018-07-09T09:30:20.408Z,6.1
2018-07-09T09:31:21.246Z,3.7
2018-07-09T09:32:21.871Z,8.2
2018-07-09T09:33:22.858Z,5.2
2018-07-09T09:34:23.608Z,8.0
2018-07-09T09:35:24.353Z,5.5
2018-07-09T09:36:25.099Z,5.2
2018-07-09T09:37:25.868Z,5.4
2018-07-09T09:38:26.570Z,4.1
2018-07-09T09:39:27.304Z,5.4
2018-07-09T09:40:28.042Z,6.8
2018-07-09T09:41:28.767Z,8.0
2018-07-09T09:42:29.506Z,4.1
2018-07-09T09:43:30.232Z,5.4
2018-07-09T09:44:31.061Z,6.6
2018-07-09T09:45:31.796Z,11.8
2018-07-09T09:46:32.526Z,4.0
2018-07-09T09:47:33.256Z,8.4
2018-07-09T09:48:33.989Z,6.3
2018-07-09T09:49:34.819Z,6.7
2018-07-09T09:50:35.548Z,10.3
2018-07-09T09:51:36.280Z,6.3
2018-07-09T09:52:37.010Z,5.1
2018-07-09T09:53:37.742Z,4.4
2018-07-09T09:54:38.470Z,5.8
2018-07-09T09:55:39.445Z,5.2
2018-07-09T09:56:40.177Z,6.4
2018-07-09T09:57:40.909Z,4.3
2018-07-09T09:58:41.644Z,4.5
2018-07-09T09:59:42.378Z,5.3
2018-07-09T10:00:43.160Z,6.8
2018-07-09T10:01:43.845Z,6.8
2018-07-09T10:02:44.584Z,4.9
2018-07-09T10:03:45.316Z,6.7
2018-07-09T10:04:46.061Z,5.1
2018-07-09T10:05:46.785Z,8.4
2018-07-09T10:06:47.513Z,7.5
2018-07-09T10:07:48.502Z,6.9
2018-07-09T10:08:49.232Z,5.2
2018-07-09T10:09:49.956Z,13.2
2018-07-09T10:10:50.679Z,5.9
2018-07-09T10:11:51.473Z,5.4
2018-07-09T10:12:52.208Z,5.7
2018-07-09T10:13:52.944Z,10.0
2018-07-09T10:14:53.672Z,5.5
2018-07-09T10:15:54.417Z,6.1
2018-07-09T10:16:55.193Z,6.5
2018-07-09T10:17:55.894Z,5.6
2018-07-09T10:18:56.627Z,9.5
2018-07-09T10:19:57.365Z,7.7
2018-07-09T10:20:58.114Z,6.8
2018-07-09T10:21:58.839Z,5.0
2018-07-09T10:22:59.652Z,10.2
2018-07-09T10:24:00.325Z,6.7
2018-07-09T10:25:01.166Z,10.1
2018-07-09T10:26:01.893Z,9.9
2018-07-09T10:27:02.629Z,6.4
2018-07-09T10:28:03.360Z,7.2
2018-07-09T10:29:04.099Z,6.2
2018-07-09T10:30:04.875Z,6.3
2018-07-09T10:31:05.603Z,6.8
2018-07-09T10:32:06.329Z,6.7
2018-07-09T10:33:07.054Z,9.9
2018-07-09T10:34:07.786Z,6.9
2018-07-09T10:35:08.606Z,9.8
2018-07-09T10:36:09.343Z,9.1
2018-07-09T10:37:10.086Z,7.5
2018-07-09T10:38:10.817Z,5.8
2018-07-09T10:39:11.551Z,8.5
2018-07-09T10:40:12.520Z,8.7
2018-07-09T10:41:13.256Z,6.7
2018-07-09T10:42:13.983Z,5.6
2018-07-09T10:43:14.725Z,8.1
2018-07-09T10:44:15.462Z,8.3
2018-07-09T10:45:16.193Z,6.1
2018-07-09T10:46:16.917Z,5.4
2018-07-09T10:47:17.661Z,5.9
2018-07-09T10:48:18.687Z,6.6
2018-07-09T10:49:19.430Z,6.2
2018-07-09T10:50:20.156Z,8.0
2018-07-09T10:51:20.900Z,6.6
2018-07-09T10:52:21.645Z,6.4
2018-07-09T10:53:22.478Z,9.7
2018-07-09T10:54:23.462Z,8.8
2018-07-09T10:55:24.192Z,8.2
2018-07-09T10:56:24.935Z,6.8
2018-07-09T10:57:25.671Z,6.9
2018-07-09T10:58:26.550Z,6.9
2018-07-09T10:59:27.295Z,7.6
2018-07-09T11:00:28.021Z,5.8
2018-07-09T11:01:28.753Z,5.8
2018-07-09T11:02:29.476Z,6.9
2018-07-09T11:03:30.210Z,7.3
2018-07-09T11:04:31.003Z,6.6
2018-07-09T11:05:31.727Z,6.2
2018-07-09T11:06:32.468Z,8.9
2018-07-09T11:07:33.187Z,6.7
2018-07-09T11:08:33.919Z,7.2
2018-07-09T11:09:34.790Z,5.9
2018-07-09T11:10:35.500Z,8.5
2018-07-09T11:11:36.232Z,5.9
2018-07-09T11:12:36.970Z,6.5
2018-07-09T11:13:37.718Z,6.0
2018-07-09T11:14:38.446Z,6.0
2018-07-09T11:15:39.233Z,10.8
2018-07-09T11:16:39.969Z,8.6
2018-07-09T11:17:40.709Z,5.5
2018-07-09T11:18:41.438Z,6.3
2018-07-09T11:19:42.176Z,6.3
2018-07-09T11:20:42.919Z,7.4
2018-07-09T11:21:43.680Z,7.4
2018-07-09T11:22:44.386Z,7.1
2018-07-09T11:23:45.364Z,6.2
2018-07-09T11:24:46.112Z,8.7
2018-07-09T11:25:46.833Z,8.5
2018-07-09T11:26:47.568Z,5.8
2018-07-09T11:27:48.301Z,5.9
2018-07-09T11:28:49.276Z,6.2
2018-07-09T11:29:50.022Z,9.0
2018-07-09T11:30:50.759Z,5.0
2018-07-09T11:31:52.133Z,5.1
2018-07-09T11:32:52.867Z,4.7
2018-07-09T11:33:53.609Z,5.3
2018-07-09T11:34:54.337Z,6.2
2018-07-09T11:35:55.111Z,5.9
2018-07-09T11:36:55.809Z,6.2
2018-07-09T11:37:56.544Z,8.7
2018-07-09T11:38:57.273Z,4.7
2018-07-09T11:39:58.009Z,4.5
2018-07-09T11:40:58.742Z,4.8
2018-07-09T11:41:59.487Z,4.5
2018-07-09T11:43:00.569Z,4.7
2018-07-09T11:44:01.307Z,4.5
2018-07-09T11:45:02.300Z,4.8
2018-07-09T11:46:03.030Z,6.1
2018-07-09T11:47:03.758Z,5.1
2018-07-09T11:48:04.495Z,5.8
2018-07-09T11:49:05.219Z,7.2
2018-07-09T11:50:05.946Z,7.1
2018-07-09T11:51:06.692Z,4.8
2018-07-09T11:52:07.480Z,4.9
2018-07-09T11:53:08.170Z,4.2
2018-07-09T11:54:08.909Z,4.8
2018-07-09T11:55:09.651Z,5.7
2018-07-09T11:56:10.384Z,5.2
2018-07-09T11:57:11.123Z,4.1
2018-07-09T11:58:11.847Z,4.6
2018-07-09T11:59:12.588Z,7.1
2018-07-09T12:00:13.313Z,4.4
2018-07-09T12:01:14.292Z,4.3
2018-07-09T12:02:15.126Z,4.5
2018-07-09T12:03:15.858Z,5.5
2018-07-09T12:04:16.839Z,3.9
2018-07-09T12:05:17.578Z,3.5
2018-07-09T12:06:18.300Z,4.0
2018-07-09T12:07:19.045Z,11.2
2018-07-09T12:08:19.788Z,3.3
2018-07-09T12:09:20.528Z,6.5
2018-07-09T12:10:21.258Z,3.7
2018-07-09T12:11:22.004Z,4.4
2018-07-09T12:12:23.107Z,4.1
2018-07-09T12:13:23.841Z,12.5
2018-07-09T12:14:24.575Z,7.7
2018-07-09T12:15:25.305Z,4.5
2018-07-09T12:16:26.048Z,6.9
2018-07-09T12:17:27.125Z,4.5
2018-07-09T12:18:27.852Z,3.5
2018-07-09T12:19:28.595Z,4.4
2018-07-09T12:20:29.327Z,6.4
2018-07-09T12:21:30.073Z,6.0
2018-07-09T12:22:31.145Z,4.2
2018-07-09T12:23:31.874Z,3.8
2018-07-09T12:24:32.606Z,4.4
2018-07-09T12:25:33.609Z,5.0
2018-07-09T12:26:34.335Z,3.5
2018-07-09T12:27:35.290Z,4.0
2018-07-09T12:28:36.042Z,7.9
2018-07-09T12:29:36.771Z,4.1
2018-07-09T12:30:37.499Z,4.8
2018-07-09T12:31:38.228Z,4.2
2018-07-09T12:32:38.971Z,5.1
2018-07-09T12:33:39.759Z,3.7
2018-07-09T12:34:40.488Z,3.7
2018-07-09T12:35:41.231Z,4.3
2018-07-09T12:36:41.961Z,4.1
2018-07-09T12:37:42.692Z,3.8
2018-07-09T12:38:43.476Z,3.5
2018-07-09T12:39:44.207Z,4.3
2018-07-09T12:40:44.942Z,5.7
2018-07-09T12:41:45.705Z,8.1
2018-07-09T12:42:46.434Z,5.3
2018-07-09T12:43:47.488Z,5.3
2018-07-09T12:44:48.202Z,4.2
2018-07-09T12:45:48.938Z,4.2
2018-07-09T12:46:49.676Z,3.6
2018-07-09T12:47:50.415Z,4.2
2018-07-09T12:48:51.144Z,5.7
2018-07-09T12:49:51.875Z,9.4
2018-07-09T12:50:52.608Z,4.6
2018-07-09T12:51:53.386Z,5.6
2018-07-09T12:52:54.117Z,4.1
2018-07-09T12:53:54.850Z,4.2
2018-07-09T12:54:55.598Z,8.5
2018-07-09T12:55:56.344Z,6.0
2018-07-09T12:56:57.136Z,4.1
2018-07-09T12:57:57.864Z,7.0
2018-07-09T12:58:58.599Z,3.5
2018-07-09T12:59:59.345Z,4.0
2018-07-09T13:01:00.337Z,5.9
2018-07-09T13:02:01.061Z,4.6
2018-07-09T13:03:01.798Z,4.5
2018-07-09T13:04:02.531Z,3.9
2018-07-09T13:05:03.535Z,8.8
2018-07-09T13:06:04.254Z,5.5
2018-07-09T13:07:05.101Z,5.2
2018-07-09T13:08:05.782Z,5.9
2018-07-09T13:09:06.518Z,5.1
2018-07-09T13:10:07.252Z,6.8
2018-07-09T13:11:07.982Z,9.5
2018-07-09T13:12:08.715Z,4.0
2018-07-09T13:13:09.457Z,6.2
2018-07-09T13:14:10.188Z,3.6
2018-07-09T13:15:10.922Z,4.1
2018-07-09T13:16:11.653Z,3.9
2018-07-09T13:17:12.391Z,10.9
2018-07-09T13:18:13.136Z,7.7
2018-07-09T13:19:13.868Z,3.9
2018-07-09T13:20:14.612Z,4.4
2018-07-09T13:21:15.344Z,5.2
2018-07-09T13:22:16.082Z,6.6
2018-07-09T13:23:16.815Z,3.7
2018-07-09T13:24:17.906Z,5.9
2018-07-09T13:25:18.645Z,3.4
2018-07-09T13:26:19.375Z,4.7
2018-07-09T13:27:20.110Z,3.7
2018-07-09T13:28:20.849Z,5.4
2018-07-09T13:29:21.893Z,3.5
2018-07-09T13:30:22.645Z,3.5
2018-07-09T13:31:23.378Z,7.3
2018-07-09T13:32:24.113Z,3.9
2018-07-09T13:33:24.844Z,6.5
2018-07-09T13:34:25.938Z,4.6
2018-07-09T13:35:26.677Z,3.9
2018-07-09T13:36:27.403Z,4.7
2018-07-09T13:37:28.152Z,12.6
2018-07-09T13:38:28.896Z,3.4
2018-07-09T13:39:29.934Z,4.2
2018-07-09T13:40:30.666Z,4.8
2018-07-09T13:41:31.407Z,6.2
2018-07-09T13:42:32.164Z,4.7
2018-07-09T13:43:32.895Z,3.3
2018-07-09T13:44:33.622Z,4.8